Time;durP1;ratioP1;P1;durP2;ratioP2;P2;SDS_P1;SDS_P2;PMS_P1;PMS_P2;Temp;Humidity;BMP_temperature;BMP_pressure;BME280_temperature;BME280_humidity;BME280_pressure;Samples;Min_cycle;Max_cycle;Signal;HPM_P1;HPM_P2
2023/08/02 06:23:56;;;;;;;;;1.33;1.33;;;;;21.92;63.15;99313.03;5074850;27;46437;-81
2023/08/02 06:26:21;;;;;;;;;1.67;1.67;;;;;22.09;62.37;99313.63;5066965;28;45551;-81
2023/08/02 06:28:47;;;;;;;;;1.00;1.00;;;;;22.28;62.06;99308.59;5068545;28;45866;-80
2023/08/02 06:31:12;;;;;;;;;1.67;1.67;;;;;22.49;61.80;99312.28;5065436;28;45382;-81
2023/08/02 06:33:38;;;;;;;;;0.00;0.00;;;;;22.71;61.12;99314.94;5066248;27;45657;-81
2023/08/02 06:36:03;;;;;;;;;1.33;0.00;;;;;22.90;60.72;99316.13;5067496;27;45418;-79
2023/08/02 06:38:28;;;;;;;;;0.00;0.00;;;;;23.08;59.96;99315.59;5063613;28;45376;-80
2023/08/02 06:40:54;;;;;;;;;0.00;0.00;;;;;23.23;59.21;99309.22;5066963;28;57142;-80
2023/08/02 06:43:19;;;;;;;;;1.00;1.00;;;;;23.39;59.61;99327.88;5067703;28;45965;-81
2023/08/02 06:45:46;;;;;;;;;0.33;0.33;;;;;23.56;59.07;99313.97;5060495;28;45457;-82
2023/08/02 06:48:11;;;;;;;;;1.00;1.00;;;;;23.70;58.80;99306.69;5065737;28;45631;-81
2023/08/02 06:50:37;;;;;;;;;1.00;1.00;;;;;23.82;58.48;99309.63;5067759;28;45405;-82
2023/08/02 06:53:03;;;;;;;;;2.00;2.00;;;;;23.94;58.42;99301.75;5064816;28;46015;-81
2023/08/02 06:55:29;;;;;;;;;1.00;1.00;;;;;24.03;58.19;99310.53;5067535;28;45461;-81
2023/08/02 06:57:54;;;;;;;;;1.00;1.00;;;;;24.12;57.92;99312.03;5063729;28;45774;-80
2023/08/02 07:00:19;;;;;;;;;1.00;1.00;;;;;24.20;57.46;99306.38;5065287;28;45451;-79
2023/08/02 07:02:44;;;;;;;;;0.33;0.33;;;;;24.30;57.21;99280.72;5067510;27;46119;-87
2023/08/02 07:05:10;;;;;;;;;0.00;0.00;;;;;24.39;57.67;99275.94;5064095;28;56191;-84
2023/08/02 07:07:35;;;;;;;;;2.00;0.00;;;;;24.43;57.57;99258.19;5059636;28;45907;-80
2023/08/02 07:10:00;;;;;;;;;1.00;1.00;;;;;24.52;57.15;99283.25;5066590;28;53238;-80
2023/08/02 07:12:25;;;;;;;;;0.33;0.00;;;;;24.56;57.33;99279.06;5064381;28;57722;-80
2023/08/02 07:14:51;;;;;;;;;0.00;0.00;;;;;24.61;57.08;99263.81;5067540;28;49315;-82
2023/08/02 07:17:16;;;;;;;;;0.00;0.00;;;;;24.66;56.88;99282.16;5061462;28;45615;-81
2023/08/02 07:19:42;;;;;;;;;1.00;1.00;;;;;24.72;56.38;99272.34;5055069;28;45435;-81
2023/08/02 07:22:07;;;;;;;;;2.00;1.00;;;;;24.74;57.42;99256.69;5056220;28;55599;-85
2023/08/02 07:24:32;;;;;;;;;0.00;0.00;;;;;24.79;57.01;99261.47;5060814;28;45596;-86
2023/08/02 07:26:58;;;;;;;;;0.00;0.00;;;;;24.82;56.31;99269.19;5065894;28;45505;-87
2023/08/02 07:29:23;;;;;;;;;0.00;0.00;;;;;24.86;56.24;99265.03;5066862;28;45339;-87
2023/08/02 07:31:48;;;;;;;;;0.00;0.00;;;;;24.88;56.10;99256.69;5066840;28;46150;-86
2023/08/02 07:34:13;;;;;;;;;0.00;0.00;;;;;24.92;56.38;99252.47;5059747;28;51584;-79
2023/08/02 07:36:39;;;;;;;;;0.00;0.00;;;;;24.96;56.08;99251.00;5051827;28;45492;-79
2023/08/02 07:39:04;;;;;;;;;0.00;0.00;;;;;24.97;55.96;99253.50;5048997;28;47188;-79
2023/08/02 07:41:29;;;;;;;;;1.00;1.00;;;;;25.02;55.64;99247.47;5052393;28;61426;-85
2023/08/02 07:43:55;;;;;;;;;0.00;0.00;;;;;25.04;56.01;99252.66;5048945;28;45547;-81
2023/08/02 07:46:22;;;;;;;;;0.33;0.33;;;;;25.05;55.32;99249.72;5047371;28;45494;-81
2023/08/02 07:48:50;;;;;;;;;0.33;0.00;;;;;25.05;55.75;99249.72;5050348;28;45307;-83
2023/08/02 07:51:15;;;;;;;;;0.00;0.00;;;;;25.07;55.29;99244.09;5047750;28;46042;-82
2023/08/02 07:53:41;;;;;;;;;2.00;0.00;;;;;25.09;55.04;99244.72;5028369;28;45700;-77
2023/08/02 07:56:07;;;;;;;;;0.00;0.00;;;;;25.10;55.22;99259.94;5025175;28;45532;-81
2023/08/02 07:58:32;;;;;;;;;0.00;0.00;;;;;25.10;55.22;99251.81;5024670;28;45815;-82
2023/08/02 08:01:05;;;;;;;;;0.33;0.00;;;;;25.12;55.14;99258.69;5035482;28;45493;-80
2023/08/02 08:03:30;;;;;;;;;0.00;0.00;;;;;25.11;54.85;99262.47;5043219;28;45559;-82
2023/08/02 08:05:55;;;;;;;;;0.00;0.00;;;;;25.12;54.96;99265.97;5042504;28;47655;-83
2023/08/02 08:08:21;;;;;;;;;0.00;0.00;;;;;25.12;54.91;99265.97;5040338;28;45670;-84
2023/08/02 08:10:51;;;;;;;;;0.00;0.00;;;;;25.13;54.91;99265.78;5049481;28;46805;-82
2023/08/02 08:13:16;;;;;;;;;0.00;0.00;;;;;25.14;54.73;99263.91;5024609;28;46136;-84
2023/08/02 08:15:42;;;;;;;;;0.33;0.00;;;;;25.15;55.26;99260.13;5027515;28;46820;-82
2023/08/02 08:18:07;;;;;;;;;1.00;1.00;;;;;25.16;55.63;99264.50;5042021;28;45544;-82
2023/08/02 08:20:32;;;;;;;;;2.00;2.00;;;;;25.17;55.57;99257.22;5052638;28;59157;-83
2023/08/02 08:22:57;;;;;;;;;0.33;0.33;;;;;25.19;55.57;99253.22;5045873;28;49268;-82
2023/08/02 08:25:23;;;;;;;;;0.00;0.00;;;;;25.21;55.69;99247.56;5044089;28;53760;-82
2023/08/02 08:27:48;;;;;;;;;1.67;1.67;;;;;25.22;55.32;99247.34;5052384;28;45629;-82
2023/08/02 08:30:13;;;;;;;;;0.00;0.00;;;;;25.25;56.05;99241.50;5052674;28;48726;-83
2023/08/02 08:32:38;;;;;;;;;1.00;1.00;;;;;25.27;55.42;99233.94;5051262;28;49038;-83
2023/08/02 08:35:04;;;;;;;;;2.33;1.67;;;;;25.29;55.59;99239.16;5052714;28;58532;-83
2023/08/02 08:37:30;;;;;;;;;2.67;1.00;;;;;25.30;55.48;99238.13;5053038;28;45773;-83
2023/08/02 08:39:55;;;;;;;;;0.00;0.00;;;;;25.31;55.08;99241.69;5049166;28;45553;-84
2023/08/02 08:42:20;;;;;;;;;0.33;0.33;;;;;25.36;55.04;99231.00;5059576;28;45661;-83
2023/08/02 08:44:46;;;;;;;;;0.67;0.67;;;;;25.38;54.98;99235.16;5045396;28;45533;-83
2023/08/02 08:47:14;;;;;;;;;1.00;1.00;;;;;25.38;55.39;99227.00;5049668;28;46802;-83
2023/08/02 08:49:39;;;;;;;;;0.00;0.00;;;;;25.41;54.93;99217.59;5049330;28;46309;-84
2023/08/02 08:52:11;;;;;;;;;2.00;1.00;;;;;25.44;55.46;99221.75;5048419;28;45584;-85
2023/08/02 08:54:38;;;;;;;;;0.00;0.00;;;;;25.43;54.90;99201.94;5047617;28;45481;-85
2023/08/02 08:57:07;;;;;;;;;1.00;1.00;;;;;25.46;54.58;99209.63;5048187;28;45422;-86
2023/08/02 08:59:34;;;;;;;;;1.00;1.00;;;;;25.47;54.59;99214.00;5052119;28;45476;-85
2023/08/02 09:02:00;;;;;;;;;1.33;0.00;;;;;25.47;54.84;99211.28;5052529;28;45596;-85
2023/08/02 09:04:26;;;;;;;;;0.00;0.00;;;;;25.50;54.83;99219.00;5040443;28;45540;-85
2023/08/02 09:06:51;;;;;;;;;0.00;0.00;;;;;25.52;54.85;99207.91;5051449;28;45555;-83
2023/08/02 09:09:16;;;;;;;;;0.00;0.00;;;;;25.50;54.83;99202.69;5051810;28;47410;-83
2023/08/02 09:11:45;;;;;;;;;0.00;0.00;;;;;25.55;54.98;99215.69;5051735;28;49947;-81
2023/08/02 09:14:11;;;;;;;;;1.00;0.33;;;;;25.56;54.70;99214.63;5052278;28;45643;-81
2023/08/02 09:16:54;;;;;;;;;0.00;0.00;;;;;25.58;54.49;99201.63;5053422;28;45534;-82
2023/08/02 09:19:24;;;;;;;;;0.00;0.00;;;;;25.59;54.60;99205.19;5051919;28;46021;-83
2023/08/02 09:22:15;;;;;;;;;0.00;0.00;;;;;25.60;54.00;99196.84;5050844;28;45587;-82
2023/08/02 09:24:42;;;;;;;;;1.00;0.00;;;;;25.61;54.12;99200.34;5050709;28;45394;-83
2023/08/02 09:27:19;;;;;;;;;0.00;0.00;;;;;25.64;53.92;99191.78;5052209;28;45711;-87
2023/08/02 09:29:50;;;;;;;;;0.00;0.00;;;;;25.63;54.02;99185.50;5039411;28;45556;-88
2023/08/02 09:32:17;;;;;;;;;0.00;0.00;;;;;25.63;53.94;99181.97;5048914;28;45650;-88
2023/08/02 09:34:45;;;;;;;;;0.00;0.00;;;;;25.67;53.77;99185.06;5039941;28;45399;-83
2023/08/02 09:37:12;;;;;;;;;0.00;0.00;;;;;25.67;53.66;99183.19;5052112;28;45443;-82
2023/08/02 09:39:38;;;;;;;;;0.00;0.00;;;;;25.70;53.73;99176.50;5051286;28;47223;-87
2023/08/02 09:42:14;;;;;;;;;0.00;0.00;;;;;25.70;53.94;99160.19;5051136;28;45459;-88
2023/08/02 09:44:41;;;;;;;;;1.00;1.00;;;;;25.71;54.58;99167.28;5052236;28;45421;-90
2023/08/02 09:47:12;;;;;;;;;0.00;0.00;;;;;25.73;54.53;99174.16;5051670;28;45394;-85
2023/08/02 09:49:39;;;;;;;;;0.00;0.00;;;;;25.74;54.19;99174.97;5051705;28;45564;-85
2023/08/02 09:52:04;;;;;;;;;0.33;0.33;;;;;25.75;54.02;99165.78;5050747;28;45482;-84
2023/08/02 09:54:30;;;;;;;;;0.00;0.00;;;;;25.76;54.54;99170.16;5049350;28;45529;-82
2023/08/02 09:56:56;;;;;;;;;0.00;0.00;;;;;25.75;53.85;99172.03;5048630;28;45509;-86
2023/08/02 09:59:25;;;;;;;;;0.00;0.00;;;;;25.75;54.63;99161.16;5051400;28;46295;-84
2023/08/02 10:01:51;;;;;;;;;0.00;0.00;;;;;25.77;54.11;99179.97;5051478;28;45533;-85
2023/08/02 10:04:17;;;;;;;;;0.00;0.00;;;;;25.77;54.19;99188.13;5041280;28;45522;-82
2023/08/02 10:06:52;;;;;;;;;0.00;0.00;;;;;25.78;54.13;99212.38;5048349;28;45478;-88
2023/08/02 10:09:20;;;;;;;;;1.00;1.00;;;;;25.79;53.83;99197.72;5049835;28;46255;-86
2023/08/02 10:11:52;;;;;;;;;0.00;0.00;;;;;25.79;53.74;99215.94;5047031;28;45481;-82
2023/08/02 10:14:19;;;;;;;;;1.00;0.00;;;;;25.81;53.66;99196.66;5045566;28;45526;-83
2023/08/02 10:16:45;;;;;;;;;0.67;0.00;;;;;25.83;53.24;99210.88;5050570;28;45471;-82
2023/08/02 10:19:12;;;;;;;;;0.00;0.00;;;;;25.83;52.76;99216.31;5051605;28;45476;-84
2023/08/02 10:21:39;;;;;;;;;0.00;0.00;;;;;25.84;52.85;99202.50;5043284;28;46018;-81
2023/08/02 10:24:05;;;;;;;;;2.00;0.00;;;;;25.85;52.81;99203.31;5047187;28;45523;-83
2023/08/02 10:26:31;;;;;;;;;0.00;0.00;;;;;25.85;53.10;99214.19;5039437;28;45453;-82
2023/08/02 10:28:58;;;;;;;;;0.00;0.00;;;;;25.86;52.64;99219.41;5050517;28;45839;-88
2023/08/02 10:31:24;;;;;;;;;0.00;0.00;;;;;25.85;52.66;99196.00;5050293;28;45477;-87
2023/08/02 10:33:50;;;;;;;;;2.00;1.00;;;;;25.87;52.23;99206.66;5048959;28;45915;-85
2023/08/02 10:36:15;;;;;;;;;0.00;0.00;;;;;25.87;51.65;99198.50;5049033;28;45717;-88
2023/08/02 10:38:41;;;;;;;;;0.00;0.00;;;;;25.87;51.80;99207.47;5049218;28;57954;-86
2023/08/02 10:41:26;;;;;;;;;0.00;0.00;;;;;25.87;51.66;99203.94;5050487;28;45459;-87
2023/08/02 10:43:52;;;;;;;;;0.67;0.00;;;;;25.88;50.99;99213.75;5048825;28;45769;-86
2023/08/02 10:46:26;;;;;;;;;0.00;0.00;;;;;25.88;51.66;99228.16;5050076;28;45438;-88
2023/08/02 10:48:52;;;;;;;;;2.00;0.00;;;;;25.88;51.18;99211.03;5048642;28;46370;-87
2023/08/02 10:51:26;;;;;;;;;3.00;1.00;;;;;25.90;51.02;99214.34;5048837;28;45403;-90
2023/08/02 10:54:14;;;;;;;;;0.00;0.00;;;;;25.90;51.08;99204.31;5046388;28;45422;-87
2023/08/02 10:56:52;;;;;;;;;0.33;0.33;;;;;25.90;50.63;99211.63;5047277;28;45466;-81
2023/08/02 10:59:23;;;;;;;;;1.00;0.33;;;;;25.90;50.46;99227.94;5034106;28;45529;-82
2023/08/02 11:02:01;;;;;;;;;0.00;0.00;;;;;25.89;50.48;99216.25;5038329;28;45387;-83
2023/08/02 11:04:28;;;;;;;;;1.00;1.00;;;;;25.86;50.24;99222.13;5039646;28;46746;-84
2023/08/02 11:06:54;;;;;;;;;0.00;0.00;;;;;25.88;49.94;99247.19;5036525;28;45525;-85
2023/08/02 11:09:46;;;;;;;;;1.00;0.00;;;;;25.88;50.24;99246.38;5040041;28;45525;-84
2023/08/02 11:12:15;;;;;;;;;0.00;0.00;;;;;25.87;50.13;99242.00;5040292;28;45994;-86
2023/08/02 11:14:43;;;;;;;;;1.00;1.00;;;;;25.87;49.96;99242.81;5041905;28;45733;-85
2023/08/02 11:17:09;;;;;;;;;1.33;1.00;;;;;25.88;49.49;99246.38;5045438;28;45509;-85
2023/08/02 11:19:35;;;;;;;;;1.00;0.00;;;;;25.87;49.29;99231.13;5041435;28;46180;-85
2023/08/02 11:22:01;;;;;;;;;0.00;0.00;;;;;25.84;48.70;99240.56;5039534;28;45545;-86
2023/08/02 11:24:27;;;;;;;;;2.00;0.00;;;;;25.85;48.98;99255.81;5042557;28;45681;-85
2023/08/02 11:26:57;;;;;;;;;0.33;0.33;;;;;25.85;49.08;99247.66;5042252;28;45570;-85
2023/08/02 11:29:23;;;;;;;;;1.67;1.67;;;;;25.85;48.50;99244.94;5043647;28;45519;-81
2023/08/02 11:31:50;;;;;;;;;0.33;0.33;;;;;25.85;48.24;99246.81;5046441;28;45516;-82
2023/08/02 11:34:18;;;;;;;;;1.33;0.67;;;;;25.86;47.90;99262.91;5050272;28;45549;-82
2023/08/02 11:36:45;;;;;;;;;1.33;1.33;;;;;25.84;48.00;99248.72;5053739;28;45560;-83
2023/08/02 11:39:14;;;;;;;;;1.67;1.67;;;;;25.87;48.11;99253.69;5052268;28;45972;-82
2023/08/02 11:41:40;;;;;;;;;1.00;1.00;;;;;25.89;47.73;99234.44;5047499;28;45520;-81
2023/08/02 11:44:14;;;;;;;;;1.33;1.33;;;;;25.89;48.12;99251.59;5049221;28;45901;-81
2023/08/02 11:46:40;;;;;;;;;2.00;1.67;;;;;25.90;47.85;99238.81;5043594;28;45862;-82
2023/08/02 11:49:06;;;;;;;;;0.67;0.67;;;;;25.92;47.99;99253.03;5052146;28;45355;-83
2023/08/02 11:51:31;;;;;;;;;0.67;0.00;;;;;25.94;47.45;99259.06;5053130;28;45781;-83
2023/08/02 11:53:58;;;;;;;;;1.00;1.00;;;;;25.94;48.00;99263.69;5043990;28;45652;-85
2023/08/02 11:56:25;;;;;;;;;0.00;0.00;;;;;25.94;47.60;99240.03;5053358;28;45855;-85
2023/08/02 11:58:52;;;;;;;;;1.00;1.00;;;;;25.96;47.01;99242.53;5047672;28;46598;-86
2023/08/02 12:01:18;;;;;;;;;1.00;1.00;;;;;25.95;47.25;99244.41;5053068;28;45592;-86
2023/08/02 12:03:58;;;;;;;;;2.00;1.00;;;;;25.97;46.64;99265.94;5043059;28;45927;-88
2023/08/02 12:06:26;;;;;;;;;1.00;1.00;;;;;25.97;46.23;99247.75;5052535;28;45502;-82
2023/08/02 12:08:57;;;;;;;;;4.00;0.33;;;;;25.99;46.08;99251.09;5051027;28;45510;-85
2023/08/02 12:11:23;;;;;;;;;1.00;1.00;;;;;25.98;46.08;99249.44;5053067;28;45469;-84
2023/08/02 12:13:49;;;;;;;;;1.00;1.00;;;;;25.94;45.91;99240.03;5044447;28;45474;-85
2023/08/02 12:16:16;;;;;;;;;1.00;1.00;;;;;25.95;45.73;99235.44;5052537;28;45423;-84
2023/08/02 12:18:58;;;;;;;;;1.00;1.00;;;;;25.94;45.83;99244.66;5051397;28;45523;-86
2023/08/02 12:21:25;;;;;;;;;1.00;1.00;;;;;25.91;45.75;99238.59;5051871;28;45523;-85
2023/08/02 12:23:51;;;;;;;;;1.00;1.00;;;;;25.90;46.16;99228.78;5045333;28;45390;-85
2023/08/02 12:26:31;;;;;;;;;1.00;1.00;;;;;25.89;45.79;99229.84;5049794;28;45634;-86
2023/08/02 12:28:56;;;;;;;;;2.33;1.67;;;;;25.88;46.35;99241.75;5052136;28;45526;-84
2023/08/02 12:31:22;;;;;;;;;4.00;1.33;;;;;25.89;46.10;99234.44;5052253;28;45756;-83
2023/08/02 12:33:48;;;;;;;;;2.00;1.67;;;;;25.88;46.72;99255.34;5050088;28;45558;-82
2023/08/02 12:36:24;;;;;;;;;1.00;1.00;;;;;25.88;46.24;99230.06;5051692;28;45531;-82
2023/08/02 12:38:49;;;;;;;;;1.00;1.00;;;;;25.91;46.57;99245.91;5052763;28;47089;-82
2023/08/02 12:41:15;;;;;;;;;2.00;1.00;;;;;25.89;46.06;99229.84;5048079;28;58107;-81
2023/08/02 12:43:40;;;;;;;;;3.00;1.00;;;;;25.90;46.45;99249.69;5049258;28;45487;-81
2023/08/02 12:46:05;;;;;;;;;2.67;1.67;;;;;25.91;46.43;99254.06;5045876;28;52076;-80
2023/08/02 12:48:30;;;;;;;;;1.00;0.33;;;;;25.91;46.30;99262.22;5052725;28;45586;-81
2023/08/02 12:50:56;;;;;;;;;1.00;1.00;;;;;25.90;47.07;99238.81;5050705;28;50289;-82
2023/08/02 12:53:22;;;;;;;;;1.00;1.00;;;;;25.94;46.17;99252.81;5050857;28;45442;-85
2023/08/02 12:55:47;;;;;;;;;0.67;0.00;;;;;25.94;46.03;99256.34;5051363;28;45732;-84
2023/08/02 12:58:12;;;;;;;;;0.00;0.00;;;;;25.94;46.37;99256.34;5047940;28;46035;-84
2023/08/02 13:00:38;;;;;;;;;1.00;1.00;;;;;25.95;46.37;99262.63;5047110;28;49747;-82
2023/08/02 13:03:03;;;;;;;;;1.33;1.00;;;;;25.95;45.98;99260.72;5044482;28;45523;-86
2023/08/02 13:05:28;;;;;;;;;1.33;1.00;;;;;25.95;45.48;99243.59;5036804;28;45628;-86
2023/08/02 13:07:53;;;;;;;;;1.00;0.67;;;;;25.94;45.88;99240.03;5030374;28;46870;-85
2023/08/02 13:10:19;;;;;;;;;1.00;1.00;;;;;25.95;46.34;99247.13;5026335;28;47042;-84
2023/08/02 13:12:44;;;;;;;;;1.00;1.00;;;;;25.98;45.74;99252.16;5029311;28;46865;-82
2023/08/02 13:15:09;;;;;;;;;1.00;1.00;;;;;25.98;45.78;99256.72;5033697;28;54171;-83
2023/08/02 13:17:35;;;;;;;;;1.00;1.00;;;;;25.98;46.04;99257.56;5037821;28;46705;-85
2023/08/02 13:20:04;;;;;;;;;2.00;1.00;;;;;25.99;45.92;99244.84;5048506;28;45526;-81
2023/08/02 13:22:29;;;;;;;;;1.00;1.00;;;;;25.98;45.95;99244.00;5048372;28;45595;-82
2023/08/02 13:24:55;;;;;;;;;1.00;1.00;;;;;25.98;45.75;99244.00;5042941;28;45485;-82
2023/08/02 13:27:20;;;;;;;;;1.00;1.00;;;;;25.97;45.18;99253.19;5049239;28;46181;-81
2023/08/02 13:29:46;;;;;;;;;1.00;1.00;;;;;25.99;45.74;99253.81;5051863;28;45473;-80
2023/08/02 13:32:12;;;;;;;;;1.00;1.00;;;;;26.00;45.37;99251.94;5050825;28;45507;-82
2023/08/02 13:34:37;;;;;;;;;2.00;1.00;;;;;25.99;45.71;99253.81;5040126;28;45444;-84
2023/08/02 13:37:04;;;;;;;;;1.33;0.67;;;;;26.02;45.12;99277.00;5047845;28;46479;-85
2023/08/02 13:39:29;;;;;;;;;2.00;0.00;;;;;26.01;44.93;99265.31;5047025;28;45830;-82
2023/08/02 13:41:54;;;;;;;;;1.00;1.00;;;;;26.02;44.79;99266.97;5050028;28;56177;-83
2023/08/02 13:44:19;;;;;;;;;2.67;1.33;;;;;25.97;44.76;99234.19;5045399;28;45617;-82
2023/08/02 13:46:45;;;;;;;;;2.00;1.00;;;;;25.96;45.20;99256.97;5052007;28;50591;-84
2023/08/02 13:49:10;;;;;;;;;1.67;1.00;;;;;25.95;45.13;99238.97;5052685;28;55681;-83
2023/08/02 13:51:35;;;;;;;;;1.33;1.33;;;;;25.95;44.54;99263.44;5046916;28;45431;-83
2023/08/02 13:54:01;;;;;;;;;1.33;1.00;;;;;25.94;45.00;99253.63;5043326;28;45527;-83
2023/08/02 13:56:27;;;;;;;;;1.67;0.67;;;;;25.94;44.34;99258.25;5042864;28;46000;-83
2023/08/02 13:58:52;;;;;;;;;1.67;1.00;;;;;25.92;44.93;99251.13;5043775;28;45729;-83
2023/08/02 14:01:17;;;;;;;;;2.00;1.67;;;;;25.90;44.39;99275.00;5042071;28;59373;-78
2023/08/02 14:03:43;;;;;;;;;2.00;2.00;;;;;25.88;44.22;99258.06;5044024;28;47468;-78
2023/08/02 14:06:08;;;;;;;;;2.00;1.67;;;;;25.88;44.73;99258.06;5041946;28;45730;-81
2023/08/02 14:08:33;;;;;;;;;1.00;1.00;;;;;25.89;44.58;99267.06;5040326;28;45415;-80
2023/08/02 14:10:59;;;;;;;;;1.33;1.33;;;;;25.87;44.33;99255.59;5033054;28;45446;-80
2023/08/02 14:13:24;;;;;;;;;1.00;1.00;;;;;25.88;45.18;99263.50;5045630;28;45587;-82
2023/08/02 14:15:49;;;;;;;;;4.00;1.00;;;;;25.86;45.25;99254.75;5044697;28;46005;-81
2023/08/02 14:18:15;;;;;;;;;1.00;1.00;;;;;25.86;45.61;99249.31;5037397;28;45820;-81
2023/08/02 14:20:40;;;;;;;;;1.00;0.33;;;;;25.84;45.31;99246.00;5036858;28;45853;-82
2023/08/02 14:23:05;;;;;;;;;1.67;1.33;;;;;25.84;45.48;99245.16;5040442;28;45533;-82
2023/08/02 14:25:31;;;;;;;;;1.00;1.00;;;;;25.83;45.77;99247.00;5043760;28;47526;-81
2023/08/02 14:27:56;;;;;;;;;0.33;0.33;;;;;25.82;45.79;99244.53;5039882;28;45749;-80
2023/08/02 14:30:21;;;;;;;;;0.33;0.33;;;;;25.79;46.18;99243.91;5048485;28;45726;-81
2023/08/02 14:32:47;;;;;;;;;1.00;1.00;;;;;25.79;46.26;99259.41;5041740;28;61025;-81
2023/08/02 14:35:12;;;;;;;;;2.00;0.67;;;;;25.78;45.75;99271.31;5038298;28;53722;-80
2023/08/02 14:37:38;;;;;;;;;0.67;0.33;;;;;25.76;45.78;99252.50;5048334;28;45471;-81
2023/08/02 14:40:04;;;;;;;;;2.00;1.67;;;;;25.77;45.74;99272.38;5048393;28;45531;-80
2023/08/02 14:42:29;;;;;;;;;4.00;2.67;;;;;25.76;46.63;99255.22;5040141;28;45790;-79
2023/08/02 14:44:54;;;;;;;;;1.33;1.00;;;;;25.73;46.82;99258.38;5048114;28;47918;-80
2023/08/02 14:47:20;;;;;;;;;2.00;1.00;;;;;25.70;46.60;99275.13;5050894;28;45407;-79
2023/08/02 14:49:46;;;;;;;;;1.00;1.00;;;;;25.67;46.66;99259.28;5050767;28;45587;-82
2023/08/02 14:52:12;;;;;;;;;1.00;0.00;;;;;25.66;46.52;99268.44;5050029;28;45511;-79
2023/08/02 14:54:37;;;;;;;;;0.00;0.00;;;;;25.65;46.64;99255.94;5048145;28;45566;-80
2023/08/02 14:57:05;;;;;;;;;1.00;1.00;;;;;25.62;47.34;99280.81;5051020;28;59354;-81
2023/08/02 14:59:31;;;;;;;;;1.00;1.00;;;;;25.60;46.91;99283.75;5048547;28;45558;-82
2023/08/02 15:01:56;;;;;;;;;1.33;1.33;;;;;25.60;47.05;99289.19;5049683;28;45653;-83
2023/08/02 15:04:21;;;;;;;;;0.67;0.00;;;;;25.58;47.32;99277.69;5045046;28;51685;-79
2023/08/02 15:06:47;;;;;;;;;1.00;1.00;;;;;25.57;47.52;99291.50;5049499;28;54283;-82
2023/08/02 15:09:13;;;;;;;;;2.00;0.67;;;;;25.59;47.41;99281.25;5048232;28;47320;-79
2023/08/02 15:11:39;;;;;;;;;2.33;0.67;;;;;25.58;47.47;99282.31;5045993;28;45877;-79
2023/08/02 15:14:04;;;;;;;;;2.67;1.00;;;;;25.60;47.00;99285.63;5049651;28;46047;-78
2023/08/02 15:16:29;;;;;;;;;3.33;1.33;;;;;25.59;47.35;99284.78;5051529;28;45379;-79
2023/08/02 15:18:55;;;;;;;;;2.33;0.33;;;;;25.60;46.70;99296.50;5049589;28;52043;-79
2023/08/02 15:21:20;;;;;;;;;2.00;1.00;;;;;25.63;47.01;99293.38;5049863;28;45657;-78
2023/08/02 15:23:45;;;;;;;;;2.67;1.00;;;;;25.62;46.62;99291.66;5052012;28;48002;-81
2023/08/02 15:26:10;;;;;;;;;0.00;0.00;;;;;25.62;47.30;99294.38;5052567;28;45410;-83
2023/08/02 15:28:36;;;;;;;;;1.33;0.33;;;;;25.61;38.46;99290.00;5053083;28;46112;-80
2023/08/02 15:31:01;;;;;;;;;1.33;1.00;;;;;25.61;47.52;99282.72;5049532;28;51943;-82
2023/08/02 15:33:27;;;;;;;;;3.00;1.00;;;;;25.61;47.49;99300.88;5049268;28;45488;-84
2023/08/02 15:35:52;;;;;;;;;1.00;1.00;;;;;25.61;47.18;99280.00;5046755;28;45654;-79
2023/08/02 15:38:17;;;;;;;;;0.00;0.00;;;;;25.63;46.94;99291.47;5050852;28;45475;-79
2023/08/02 15:40:43;;;;;;;;;2.00;0.67;;;;;25.64;47.58;99286.88;5042789;28;54791;-78
2023/08/02 15:43:09;;;;;;;;;1.00;1.00;;;;;25.64;46.76;99304.00;5050623;28;45464;-78
2023/08/02 15:45:34;;;;;;;;;2.00;1.00;;;;;25.65;46.99;99312.97;5046198;28;47189;-78
2023/08/02 15:48:00;;;;;;;;;0.00;0.00;;;;;25.67;47.29;99308.19;5047672;28;45603;-83
2023/08/02 15:50:25;;;;;;;;;1.00;1.00;;;;;25.65;47.27;99312.97;5044450;28;52023;-80
2023/08/02 15:52:51;;;;;;;;;1.00;1.00;;;;;25.63;47.55;99324.06;5050039;28;46456;-81
2023/08/02 15:55:16;;;;;;;;;1.00;1.00;;;;;25.64;47.42;99322.19;5046510;28;45724;-77
2023/08/02 15:57:42;;;;;;;;;1.00;0.00;;;;;25.63;47.37;99356.66;5040369;28;45831;-78
2023/08/02 16:00:07;;;;;;;;;1.00;1.00;;;;;25.61;47.75;99319.91;5041607;28;45594;-82
2023/08/02 16:02:34;;;;;;;;;2.00;2.00;;;;;25.61;47.38;99312.59;5046895;28;46055;-76
2023/08/02 16:04:59;;;;;;;;;0.00;0.00;;;;;25.62;47.90;99316.97;5044137;28;45760;-81
2023/08/02 16:07:24;;;;;;;;;0.33;0.33;;;;;25.65;47.56;99323.84;5044629;28;45465;-79
2023/08/02 16:09:50;;;;;;;;;0.67;0.67;;;;;25.66;47.34;99328.22;5046263;28;45446;-82
2023/08/02 16:12:15;;;;;;;;;0.67;0.00;;;;;25.64;47.40;99316.75;5039183;28;45804;-83
2023/08/02 16:14:40;;;;;;;;;0.00;0.00;;;;;25.70;48.12;99329.47;5048899;28;45576;-82
2023/08/02 16:17:06;;;;;;;;;1.00;1.00;;;;;25.70;47.99;99332.19;5046521;28;47315;-79
2023/08/02 16:19:31;;;;;;;;;3.00;0.00;;;;;25.70;47.83;99340.34;5044733;28;49563;-77
2023/08/02 16:21:56;;;;;;;;;0.00;0.00;;;;;25.69;47.82;99327.81;5049994;28;45973;-76
2023/08/02 16:24:22;;;;;;;;;0.00;0.00;;;;;25.70;47.44;99344.94;5046331;28;45747;-77
2023/08/02 16:26:47;;;;;;;;;0.00;0.00;;;;;25.68;47.46;99358.75;5046660;28;45933;-77
2023/08/02 16:29:13;;;;;;;;;1.00;1.00;;;;;25.68;47.76;99349.75;5049674;28;45783;-78
2023/08/02 16:31:38;;;;;;;;;0.00;0.00;;;;;25.68;47.30;99347.88;5042473;28;45481;-79
2023/08/02 16:34:03;;;;;;;;;2.00;0.00;;;;;25.68;47.87;99344.31;5048853;28;54122;-78
2023/08/02 16:36:29;;;;;;;;;2.50;0.00;;;;;25.68;47.76;99339.72;5042133;28;45613;-77
2023/08/02 16:38:54;;;;;;;;;1.00;1.00;;;;;25.68;47.42;99336.16;5050527;28;45526;-79
2023/08/02 16:41:19;;;;;;;;;1.00;1.00;;;;;25.68;47.73;99336.16;5046719;28;47164;-79
2023/08/02 16:43:45;;;;;;;;;1.00;1.00;;;;;25.65;47.25;99335.56;5048724;28;57654;-83
2023/08/02 16:46:10;;;;;;;;;1.00;0.67;;;;;25.63;47.79;99336.84;5048305;28;45622;-82
2023/08/02 16:48:35;;;;;;;;;0.00;0.00;;;;;25.63;47.73;99332.22;5043390;28;45526;-82
